createdAt,value
2022-08-14T00:02:27.967Z,14.46
2022-08-14T00:05:39.828Z,14.42
2022-08-14T00:08:52.985Z,14.28
2022-08-14T00:12:01.995Z,14.21
2022-08-14T00:15:19.629Z,14.15
2022-08-14T00:19:06.253Z,14.16
2022-08-14T00:21:58.774Z,14.13
2022-08-14T00:25:09.468Z,14.19
2022-08-14T00:28:17.976Z,14.22
2022-08-14T00:31:35.088Z,14.11
2022-08-14T00:34:52.914Z,13.90
2022-08-14T00:38:02.761Z,13.72
2022-08-14T00:41:16.670Z,13.53
2022-08-14T00:44:32.128Z,13.62
2022-08-14T00:47:45.514Z,13.56
2022-08-14T00:50:55.024Z,13.57
2022-08-14T00:54:05.370Z,13.55
2022-08-14T00:57:29.221Z,13.59
2022-08-14T01:00:47.553Z,13.59
2022-08-14T01:04:05.640Z,13.62
2022-08-14T01:07:21.303Z,13.63
2022-08-14T01:10:46.149Z,13.56
2022-08-14T01:14:01.171Z,13.49
2022-08-14T01:17:13.449Z,13.45
2022-08-14T01:20:41.694Z,13.43
2022-08-14T01:23:54.805Z,13.55
2022-08-14T01:27:07.119Z,13.48
2022-08-14T01:30:16.935Z,13.47
2022-08-14T01:33:31.112Z,13.38
2022-08-14T01:36:59.343Z,13.28
2022-08-14T01:40:11.163Z,13.18
2022-08-14T01:43:22.169Z,13.31
2022-08-14T01:46:37.254Z,13.19
2022-08-14T01:49:46.484Z,13.10
2022-08-14T01:53:08.452Z,13.09
2022-08-14T01:56:20.017Z,13.04
2022-08-14T01:59:37.817Z,13.01
2022-08-14T02:02:46.934Z,13.04
2022-08-14T02:06:04.058Z,12.96
2022-08-14T02:09:35.313Z,12.89
2022-08-14T02:12:57.021Z,12.88
2022-08-14T02:16:21.760Z,12.92
2022-08-14T02:19:32.603Z,12.88
2022-08-14T02:22:47.277Z,12.91
2022-08-14T02:25:56.452Z,12.97
2022-08-14T02:29:11.776Z,12.87
2022-08-14T02:32:30.685Z,12.85
2022-08-14T02:35:48.245Z,12.69
2022-08-14T02:39:02.052Z,12.68
2022-08-14T02:42:15.271Z,12.61
2022-08-14T02:45:38.522Z,12.51
2022-08-14T02:49:02.507Z,12.37
2022-08-14T02:52:54.628Z,12.32
2022-08-14T02:55:44.558Z,12.32
2022-08-14T02:58:55.738Z,12.35
2022-08-14T03:02:06.209Z,12.33
2022-08-14T03:05:36.966Z,12.32
2022-08-14T03:08:49.351Z,12.23
2022-08-14T03:11:57.978Z,12.00
2022-08-14T03:15:19.078Z,12.01
2022-08-14T03:18:31.097Z,12.04
2022-08-14T03:21:40.891Z,12.19
2022-08-14T03:24:49.114Z,12.27
2022-08-14T03:28:02.601Z,12.38
2022-08-14T03:31:13.626Z,12.22
2022-08-14T03:34:24.751Z,12.22
2022-08-14T03:39:13.278Z,12.19
2022-08-14T03:41:24.450Z,12.15
2022-08-14T03:45:18.844Z,12.09
2022-08-14T03:48:11.094Z,12.03
2022-08-14T03:51:37.900Z,12.00
2022-08-14T03:54:52.264Z,12.08
2022-08-14T03:58:01.108Z,12.01
2022-08-14T04:01:10.175Z,11.85
2022-08-14T04:04:18.382Z,11.82
2022-08-14T04:07:28.325Z,11.59
2022-08-14T04:10:41.170Z,11.67
2022-08-14T04:13:50.038Z,11.76
2022-08-14T04:16:58.611Z,11.85
2022-08-14T04:20:09.984Z,11.95
2022-08-14T04:23:23.654Z,11.91
2022-08-14T04:26:42.382Z,11.80
2022-08-14T04:29:51.736Z,11.83
2022-08-14T04:33:06.390Z,12.00
2022-08-14T04:36:19.141Z,11.91
2022-08-14T04:39:46.990Z,12.01
2022-08-14T04:43:22.853Z,12.19
2022-08-14T04:46:56.472Z,12.27
2022-08-14T04:49:59.305Z,12.34
2022-08-14T04:53:13.773Z,12.44
2022-08-14T04:56:31.507Z,12.48
2022-08-14T04:59:43.474Z,12.68
2022-08-14T05:02:51.986Z,12.75
2022-08-14T05:06:05.221Z,12.83
2022-08-14T05:09:33.429Z,12.87
2022-08-14T05:13:14.320Z,13.02
2022-08-14T05:16:13.247Z,13.16
2022-08-14T05:19:28.999Z,13.29
2022-08-14T05:22:39.095Z,13.40
2022-08-14T05:25:49.270Z,13.58
2022-08-14T05:29:02.168Z,13.78
2022-08-14T05:32:10.918Z,13.90
2022-08-14T05:35:20.663Z,13.99
2022-08-14T05:38:35.266Z,14.13
2022-08-14T05:41:53.566Z,14.21
2022-08-14T05:45:11.251Z,14.32
2022-08-14T05:48:23.470Z,14.41
2022-08-14T05:51:41.725Z,14.61
2022-08-14T05:54:49.911Z,14.75
2022-08-14T05:58:01.645Z,14.96
2022-08-14T06:01:11.415Z,15.26
2022-08-14T06:04:21.240Z,15.45
2022-08-14T06:07:29.475Z,15.77
2022-08-14T06:10:37.954Z,16.57
2022-08-14T06:13:46.152Z,17.75
2022-08-14T06:16:55.684Z,19.70
2022-08-14T06:20:04.733Z,19.77
2022-08-14T06:23:12.980Z,21.72
2022-08-14T06:26:22.797Z,23.24
2022-08-14T06:29:40.115Z,24.57
2022-08-14T06:32:52.977Z,26.08
2022-08-14T06:36:01.530Z,26.48
2022-08-14T06:39:11.565Z,26.63
2022-08-14T06:42:33.102Z,25.69
2022-08-14T06:45:50.217Z,25.02
2022-08-14T06:49:03.845Z,26.11
2022-08-14T06:52:16.126Z,26.34
2022-08-14T06:55:28.178Z,27.63
2022-08-14T06:58:37.663Z,28.27
2022-08-14T07:02:03.512Z,28.10
2022-08-14T07:05:29.653Z,28.90
2022-08-14T07:08:37.864Z,28.63
2022-08-14T07:11:46.030Z,28.06
2022-08-14T07:15:01.056Z,27.22
2022-08-14T07:18:15.563Z,26.32
2022-08-14T07:21:25.457Z,27.34
2022-08-14T07:24:34.642Z,27.44
2022-08-14T07:27:44.482Z,27.86
2022-08-14T07:31:04.174Z,27.17
2022-08-14T07:34:13.585Z,26.41
2022-08-14T07:37:43.192Z,27.14
2022-08-14T07:40:53.303Z,27.65
2022-08-14T07:44:22.627Z,28.78
2022-08-14T07:47:29.773Z,29.27
2022-08-14T07:50:39.416Z,28.15
2022-08-14T07:53:49.513Z,28.36
2022-08-14T07:57:06.293Z,28.03
2022-08-14T08:00:31.285Z,28.47
2022-08-14T08:03:49.463Z,28.86
2022-08-14T08:07:03.449Z,28.61
2022-08-14T08:11:02.224Z,29.06
2022-08-14T08:14:10.830Z,28.29
2022-08-14T08:17:26.322Z,27.39
2022-08-14T08:20:46.517Z,26.96
2022-08-14T08:24:01.609Z,27.04
2022-08-14T08:27:21.410Z,26.81
2022-08-14T08:30:32.502Z,26.17
2022-08-14T08:33:43.668Z,26.73
2022-08-14T08:37:05.157Z,26.61
2022-08-14T08:40:30.971Z,26.64
2022-08-14T08:43:46.760Z,27.59
2022-08-14T08:46:58.849Z,27.46
2022-08-14T08:50:23.033Z,27.25
2022-08-14T08:53:33.976Z,27.47
2022-08-14T08:56:45.427Z,26.66
2022-08-14T08:59:58.823Z,26.25
2022-08-14T09:03:11.794Z,26.26
2022-08-14T09:06:54.523Z,26.58
2022-08-14T09:09:59.180Z,27.46
2022-08-14T09:13:08.599Z,27.49
2022-08-14T09:16:23.605Z,27.50
2022-08-14T09:19:33.292Z,26.17
2022-08-14T09:22:48.168Z,26.88
2022-08-14T09:26:00.158Z,27.16
2022-08-14T09:29:11.122Z,26.95
2022-08-14T09:32:58.937Z,26.57
2022-08-14T09:36:35.220Z,26.99
2022-08-14T09:40:01.415Z,27.41
2022-08-14T09:43:29.763Z,26.68
2022-08-14T09:46:39.011Z,27.50
2022-08-14T09:49:53.314Z,27.80
2022-08-14T09:53:10.460Z,27.98
2022-08-14T09:56:30.250Z,28.17
2022-08-14T09:59:46.446Z,27.09
2022-08-14T10:03:05.635Z,27.27
2022-08-14T10:06:19.893Z,27.48
2022-08-14T10:09:33.235Z,28.00
2022-08-14T10:12:48.459Z,27.64
2022-08-14T10:16:01.241Z,27.99
2022-08-14T10:19:13.740Z,28.02
2022-08-14T10:23:14.934Z,28.12
2022-08-14T10:26:05.965Z,28.37
2022-08-14T10:29:23.491Z,28.74
2022-08-14T10:32:51.885Z,28.48
2022-08-14T10:36:02.797Z,28.58
2022-08-14T10:39:22.634Z,28.63
2022-08-14T10:42:38.230Z,28.88
2022-08-14T10:46:21.579Z,28.93
2022-08-14T10:49:30.815Z,28.88
2022-08-14T10:52:42.252Z,28.53
2022-08-14T10:56:03.596Z,28.86
2022-08-14T10:59:13.299Z,28.95
2022-08-14T11:02:44.823Z,28.98
2022-08-14T11:06:01.171Z,29.01
2022-08-14T11:09:17.061Z,28.53
2022-08-14T11:12:40.540Z,28.44
2022-08-14T11:15:50.313Z,28.66
2022-08-14T11:19:06.192Z,28.79
2022-08-14T11:22:55.501Z,28.71
2022-08-14T11:25:53.375Z,28.71
2022-08-14T11:29:05.843Z,28.85
2022-08-14T11:32:14.178Z,28.97
2022-08-14T11:35:26.281Z,28.85
2022-08-14T11:38:53.875Z,28.79
2022-08-14T11:42:07.619Z,29.01
2022-08-14T11:45:37.395Z,28.86
2022-08-14T11:49:03.576Z,28.68
2022-08-14T11:52:13.966Z,28.64
2022-08-14T11:55:26.244Z,28.59
2022-08-14T11:58:37.300Z,28.73
2022-08-14T12:01:47.182Z,28.74
2022-08-14T12:04:56.388Z,28.50
2022-08-14T12:08:12.007Z,28.73
2022-08-14T12:11:23.073Z,28.58
2022-08-14T12:14:36.006Z,28.75
2022-08-14T12:17:50.548Z,28.86
2022-08-14T12:21:00.188Z,28.92
2022-08-14T12:24:36.011Z,28.77
2022-08-14T12:27:52.573Z,28.84
2022-08-14T12:31:20.729Z,28.98
2022-08-14T12:34:35.433Z,29.04
2022-08-14T12:37:50.662Z,29.09
2022-08-14T12:40:58.962Z,29.24
2022-08-14T12:44:08.837Z,29.25
2022-08-14T12:47:20.275Z,29.33
2022-08-14T12:50:40.539Z,29.29
2022-08-14T12:53:50.785Z,29.23
2022-08-14T12:57:08.194Z,29.25
2022-08-14T13:00:22.616Z,29.20
2022-08-14T13:03:32.336Z,29.21
2022-08-14T13:06:49.372Z,29.12
2022-08-14T13:09:59.788Z,29.09
2022-08-14T13:13:15.220Z,28.94
2022-08-14T13:16:33.679Z,29.06
2022-08-14T13:19:47.817Z,29.10
2022-08-14T13:23:00.212Z,29.17
2022-08-14T13:26:09.634Z,29.17
2022-08-14T13:29:20.959Z,29.16
2022-08-14T13:32:29.885Z,29.01
2022-08-14T13:35:39.670Z,29.02
2022-08-14T13:38:51.151Z,29.20
2022-08-14T13:42:04.329Z,29.12
2022-08-14T13:45:17.934Z,29.31
2022-08-14T13:48:33.395Z,29.16
2022-08-14T13:51:50.424Z,29.22
2022-08-14T13:55:07.197Z,29.39
2022-08-14T13:58:33.604Z,29.27
2022-08-14T14:01:44.717Z,29.22
2022-08-14T14:04:53.615Z,29.36
2022-08-14T14:08:18.583Z,29.32
2022-08-14T14:11:39.083Z,29.37
2022-08-14T14:14:51.845Z,29.38
2022-08-14T14:18:03.893Z,29.38
2022-08-14T14:21:12.512Z,29.55
2022-08-14T14:24:23.198Z,29.45
2022-08-14T14:27:40.893Z,29.34
2022-08-14T14:30:53.189Z,29.14
2022-08-14T14:34:07.637Z,29.19
2022-08-14T14:37:23.023Z,29.19
2022-08-14T14:40:54.371Z,29.22
2022-08-14T14:44:15.823Z,29.31
2022-08-14T14:47:26.619Z,29.43
2022-08-14T14:50:38.330Z,29.34
2022-08-14T14:53:49.611Z,29.25
2022-08-14T14:56:59.823Z,29.21
2022-08-14T15:00:19.391Z,29.20
2022-08-14T15:03:28.877Z,29.11
2022-08-14T15:06:38.966Z,29.05
2022-08-14T15:09:56.258Z,29.06
2022-08-14T15:13:06.656Z,28.98
2022-08-14T15:16:17.284Z,29.11
2022-08-14T15:19:25.498Z,29.16
2022-08-14T15:22:39.558Z,29.32
2022-08-14T15:25:53.372Z,29.29
2022-08-14T15:29:05.699Z,29.25
2022-08-14T15:32:21.072Z,29.36
2022-08-14T15:35:34.113Z,29.23
2022-08-14T15:38:42.859Z,29.17
2022-08-14T15:41:57.221Z,29.12
2022-08-14T15:45:11.676Z,29.04
2022-08-14T15:48:22.609Z,29.14
2022-08-14T15:51:32.001Z,29.03
2022-08-14T15:54:43.162Z,28.83
2022-08-14T15:58:03.617Z,28.61
2022-08-14T16:01:50.845Z,28.56
2022-08-14T16:04:53.024Z,28.71
2022-08-14T16:08:24.297Z,28.68
2022-08-14T16:11:36.895Z,28.69
2022-08-14T16:14:45.582Z,28.65
2022-08-14T16:17:55.311Z,28.58
2022-08-14T16:21:12.162Z,28.56
2022-08-14T16:24:28.120Z,28.53
2022-08-14T16:27:40.887Z,28.40
2022-08-14T16:30:52.647Z,28.44
2022-08-14T16:34:00.839Z,28.45
2022-08-14T16:37:34.087Z,28.39
2022-08-14T16:40:45.765Z,28.54
2022-08-14T16:43:59.381Z,28.45
2022-08-14T16:47:12.830Z,28.27
2022-08-14T16:50:43.089Z,28.06
2022-08-14T16:53:51.381Z,27.89
2022-08-14T16:57:17.093Z,27.79
2022-08-14T17:00:33.059Z,28.86
2022-08-14T17:04:03.456Z,31.47
2022-08-14T17:07:15.423Z,32.72
2022-08-14T17:10:28.224Z,33.00
2022-08-14T17:13:59.169Z,31.55
2022-08-14T17:17:05.885Z,29.98
2022-08-14T17:20:39.217Z,28.97
2022-08-14T17:23:46.072Z,28.17
2022-08-14T17:26:55.988Z,27.80
2022-08-14T17:30:32.614Z,27.47
2022-08-14T17:33:40.465Z,27.23
2022-08-14T17:36:56.102Z,27.04
2022-08-14T17:40:15.893Z,26.83
2022-08-14T17:43:41.350Z,26.64
2022-08-14T17:46:55.248Z,26.48
2022-08-14T17:50:58.627Z,26.29
2022-08-14T17:53:36.993Z,26.06
2022-08-14T17:57:13.118Z,25.92
2022-08-14T18:00:23.568Z,25.77
2022-08-14T18:03:44.965Z,25.57
2022-08-14T18:07:09.064Z,25.44
2022-08-14T18:10:55.614Z,25.28
2022-08-14T18:14:04.022Z,25.02
2022-08-14T18:17:16.409Z,24.90
2022-08-14T18:21:40.783Z,24.82
2022-08-14T18:23:55.152Z,24.66
2022-08-14T18:27:08.863Z,24.36
2022-08-14T18:30:36.461Z,24.00
2022-08-14T18:33:57.916Z,23.73
2022-08-14T18:37:19.929Z,23.55
2022-08-14T18:40:34.979Z,23.27
2022-08-14T18:43:59.258Z,23.07
2022-08-14T18:47:25.497Z,22.87
2022-08-14T18:50:48.828Z,22.88
2022-08-14T18:54:02.323Z,22.85
2022-08-14T18:57:10.770Z,22.61
2022-08-14T19:00:58.731Z,22.43
2022-08-14T19:04:08.289Z,22.14
2022-08-14T19:07:19.141Z,21.94
2022-08-14T19:10:37.470Z,21.78
2022-08-14T19:13:51.775Z,21.58
2022-08-14T19:17:00.052Z,21.48
2022-08-14T19:20:09.496Z,21.38
2022-08-14T19:23:23.437Z,21.28
2022-08-14T19:27:19.193Z,21.17
2022-08-14T19:30:29.113Z,21.01
2022-08-14T19:33:53.712Z,21.00
2022-08-14T19:37:06.022Z,20.98
2022-08-14T19:40:28.983Z,20.92
2022-08-14T19:43:55.942Z,20.75
2022-08-14T19:47:10.883Z,20.53
2022-08-14T19:50:37.915Z,20.56
2022-08-14T19:53:56.944Z,20.41
2022-08-14T19:57:05.831Z,20.31
2022-08-14T20:00:28.270Z,20.28
2022-08-14T20:04:00.341Z,20.21
2022-08-14T20:07:26.761Z,20.14
2022-08-14T20:11:07.975Z,20.03
2022-08-14T20:14:12.061Z,19.99
2022-08-14T20:17:30.983Z,19.95
2022-08-14T20:20:48.559Z,19.86
2022-08-14T20:24:31.104Z,19.82
2022-08-14T20:27:40.213Z,19.76
2022-08-14T20:30:53.706Z,19.69
2022-08-14T20:34:24.375Z,19.66
2022-08-14T20:37:41.125Z,19.62
2022-08-14T20:40:52.628Z,19.60
2022-08-14T20:44:20.967Z,19.56
2022-08-14T20:47:50.831Z,19.56
2022-08-14T20:51:26.266Z,19.43
2022-08-14T20:54:50.126Z,19.29
2022-08-14T20:58:09.556Z,19.33
2022-08-14T21:01:35.799Z,19.36
2022-08-14T21:04:56.340Z,19.21
2022-08-14T21:08:08.336Z,19.23
2022-08-14T21:11:31.601Z,19.16
2022-08-14T21:14:39.799Z,19.16
2022-08-14T21:18:01.303Z,19.04
2022-08-14T21:21:16.136Z,19.03
2022-08-14T21:24:39.842Z,18.94
2022-08-14T21:27:57.101Z,18.87
2022-08-14T21:31:09.034Z,18.77
2022-08-14T21:34:30.970Z,18.75
2022-08-14T21:37:47.681Z,18.71
2022-08-14T21:40:58.219Z,18.63
2022-08-14T21:44:17.551Z,18.55
2022-08-14T21:47:26.590Z,18.52
2022-08-14T21:51:00.701Z,18.48
2022-08-14T21:54:31.933Z,18.38
2022-08-14T21:57:55.801Z,18.34
2022-08-14T22:01:14.404Z,18.30
2022-08-14T22:04:31.904Z,18.28
2022-08-14T22:07:43.852Z,18.36
2022-08-14T22:10:54.833Z,18.39
2022-08-14T22:14:25.802Z,18.42
2022-08-14T22:17:35.084Z,18.22
2022-08-14T22:20:44.697Z,18.35
2022-08-14T22:23:55.313Z,18.44
2022-08-14T22:27:06.913Z,18.48
2022-08-14T22:30:18.621Z,18.47
2022-08-14T22:33:31.313Z,18.58
2022-08-14T22:36:49.655Z,18.44
2022-08-14T22:40:51.646Z,18.45
2022-08-14T22:43:27.581Z,18.55
2022-08-14T22:46:43.543Z,18.80
2022-08-14T22:50:28.805Z,18.87
2022-08-14T22:53:20.345Z,18.62
2022-08-14T22:56:31.945Z,18.50
2022-08-14T22:59:40.553Z,18.22
2022-08-14T23:02:49.804Z,18.11
2022-08-14T23:07:02.436Z,18.11
2022-08-14T23:09:38.615Z,18.22
2022-08-14T23:12:55.097Z,18.20
2022-08-14T23:16:03.376Z,18.29
2022-08-14T23:19:11.740Z,18.39
2022-08-14T23:22:21.186Z,18.46
2022-08-14T23:25:59.573Z,18.54
2022-08-14T23:29:02.988Z,18.54
2022-08-14T23:32:15.695Z,18.51
2022-08-14T23:35:29.065Z,18.54
2022-08-14T23:38:42.053Z,18.48
2022-08-14T23:41:53.744Z,18.58
2022-08-14T23:45:03.610Z,18.65
2022-08-14T23:48:20.704Z,18.70
2022-08-14T23:51:36.637Z,18.70
2022-08-14T23:54:49.116Z,18.74
2022-08-14T23:58:00.481Z,18.75
